Time;durP1;ratioP1;P1;durP2;ratioP2;P2;SDS_P1;SDS_P2;PMS_P1;PMS_P2;Temp;Humidity;BMP_temperature;BMP_pressure;BME280_temperature;BME280_humidity;BME280_pressure;Samples;Min_cycle;Max_cycle;Signal;HPM_P1;HPM_P2
2021/05/17 00:02:00;;;;;;;25.92;9.05;;;11.40;99.90;;;;;;4918505;29;20060;-92
2021/05/17 00:04:34;;;;;;;22.67;8.93;;;11.20;99.90;;;;;;4929474;29;20051;-92
2021/05/17 00:07:10;;;;;;;25.77;9.55;;;11.20;99.90;;;;;;4926323;29;20056;-91
2021/05/17 00:09:53;;;;;;;26.25;8.68;;;11.20;99.90;;;;;;4911051;29;20073;-92
2021/05/17 00:12:39;;;;;;;15.90;7.43;;;11.30;99.90;;;;;;4923062;29;20064;-92
2021/05/17 00:15:23;;;;;;;18.10;8.80;;;11.20;99.90;;;;;;4908159;29;20548;-92
2021/05/17 00:17:58;;;;;;;16.92;7.82;;;11.20;99.90;;;;;;4935051;29;20071;-91
2021/05/17 00:20:28;;;;;;;20.40;10.18;;;11.20;99.90;;;;;;4914137;29;20060;-92
2021/05/17 00:22:59;;;;;;;;;;;10.90;99.90;;;;;;4914683;29;20064;-90
2021/05/17 00:25:37;;;;;;;21.42;9.43;;;11.20;99.90;;;;;;4900045;29;19928;-91
2021/05/17 00:28:15;;;;;;;21.63;10.07;;;11.20;99.90;;;;;;4917568;29;20052;-91
2021/05/17 00:30:49;;;;;;;24.35;9.13;;;11.30;99.90;;;;;;4911413;29;20052;-91
2021/05/17 00:33:20;;;;;;;19.17;10.73;;;11.20;99.90;;;;;;4926237;29;20056;-91
2021/05/17 00:35:56;;;;;;;22.65;9.80;;;11.20;99.90;;;;;;4894617;29;20044;-91
2021/05/17 00:38:28;;;;;;;23.00;10.50;;;11.30;99.90;;;;;;4909979;29;20059;-91
2021/05/17 00:41:00;;;;;;;21.70;9.20;;;11.30;99.90;;;;;;4902471;29;20063;-91
2021/05/17 00:43:35;;;;;;;20.38;8.57;;;11.30;99.90;;;;;;4888805;29;20067;-92
2021/05/17 00:46:09;;;;;;;16.67;8.38;;;11.40;99.90;;;;;;4905722;29;20071;-91
2021/05/17 00:49:06;;;;;;;23.02;11.05;;;11.40;99.90;;;;;;4900940;29;20055;-91
2021/05/17 00:51:39;;;;;;;21.33;8.82;;;11.30;99.90;;;;;;4908461;29;20044;-92
2021/05/17 00:54:11;;;;;;;24.88;9.55;;;11.30;99.90;;;;;;4920223;29;20060;-91
2021/05/17 00:56:45;;;;;;;15.25;8.80;;;12.70;99.90;;;;;;4919216;29;20048;-92
2021/05/17 00:59:42;;;;;;;19.30;8.90;;;11.20;99.90;;;;;;4914293;29;20066;-91
2021/05/17 01:02:12;;;;;;;22.67;9.80;;;11.20;99.90;;;;;;4896410;29;20519;-90
2021/05/17 01:05:04;;;;;;;14.60;7.82;;;11.20;99.90;;;;;;4905769;29;20067;-91
2021/05/17 01:07:46;;;;;;;16.55;8.18;;;11.20;99.90;;;;;;4895586;29;20048;-91
2021/05/17 01:10:23;;;;;;;21.38;8.35;;;10.90;99.90;;;;;;4910952;29;20055;-91
2021/05/17 01:13:10;;;;;;;12.82;6.85;;;11.10;99.90;;;;;;4926138;29;20063;-91
2021/05/17 01:15:47;;;;;;;17.60;7.25;;;11.10;99.90;;;;;;4919077;29;20052;-92
2021/05/17 01:18:22;;;;;;;14.40;7.63;;;11.10;99.90;;;;;;4929601;29;20056;-92
2021/05/17 01:20:55;;;;;;;19.75;8.20;;;10.30;99.90;;;;;;4902577;29;20056;-91
2021/05/17 01:26:15;;;;;;;17.40;7.10;;;11.10;99.90;;;;;;4918514;29;20052;-92
2021/05/17 01:28:48;;;;;;;22.00;7.20;;;11.10;99.90;;;;;;4911503;29;20052;-92
2021/05/17 01:31:22;;;;;;;17.83;7.47;;;11.10;99.90;;;;;;4909534;29;20063;-91
2021/05/17 01:33:52;;;;;;;15.55;6.25;;;11.10;99.90;;;;;;4909031;29;20055;-92
2021/05/17 01:36:25;;;;;;;13.48;5.78;;;11.10;99.90;;;;;;4913417;29;20057;-92
2021/05/17 01:39:05;;;;;;;17.40;6.32;;;11.10;99.90;;;;;;4916584;29;20318;-92
2021/05/17 01:41:40;;;;;;;15.65;7.45;;;11.10;99.90;;;;;;4892294;29;20613;-92
2021/05/17 01:44:20;;;;;;;21.65;7.68;;;11.10;99.90;;;;;;4910015;29;20060;-91
2021/05/17 01:46:52;;;;;;;17.40;6.82;;;11.10;99.90;;;;;;4916532;29;20052;-92
2021/05/17 01:49:26;;;;;;;19.77;9.18;;;11.10;99.90;;;;;;4894292;29;20629;-92
2021/05/17 01:51:59;;;;;;;20.17;8.35;;;11.10;99.90;;;;;;4871144;29;20049;-91
2021/05/17 01:54:32;;;;;;;20.40;9.65;;;11.10;99.90;;;;;;4906020;29;20064;-91
2021/05/17 01:57:16;;;;;;;23.48;8.50;;;11.10;99.90;;;;;;4888696;29;20057;-91
2021/05/17 01:59:49;;;;;;;23.63;10.90;;;11.20;99.90;;;;;;4909121;29;20052;-92
2021/05/17 02:02:21;;;;;;;19.58;9.80;;;11.20;99.90;;;;;;4925732;29;20067;-91
2021/05/17 02:04:56;;;;;;;18.95;9.05;;;11.20;99.90;;;;;;4915121;29;20063;-91
2021/05/17 02:07:32;;;;;;;23.15;11.93;;;11.10;99.90;;;;;;4895496;29;20059;-91
2021/05/17 02:10:08;;;;;;;19.52;9.77;;;11.10;99.90;;;;;;4912235;29;20060;-91
2021/05/17 02:12:41;;;;;;;20.08;10.05;;;11.10;99.90;;;;;;4902872;29;20191;-90
2021/05/17 02:15:21;;;;;;;21.02;8.82;;;11.30;99.90;;;;;;4927061;29;20052;-91
2021/05/17 02:18:08;;;;;;;20.92;8.48;;;11.10;99.90;;;;;;4894397;29;20472;-90
2021/05/17 02:20:42;;;;;;;18.52;6.82;;;11.10;99.90;;;;;;4906642;29;20252;-91
2021/05/17 02:23:14;;;;;;;16.55;9.45;;;9.80;99.90;;;;;;4908856;29;20530;-91
2021/05/17 02:25:52;;;;;;;12.90;5.57;;;11.00;99.90;;;;;;4892424;29;20408;-91
2021/05/17 02:28:23;;;;;;;14.07;6.07;;;11.10;99.90;;;;;;4898796;29;20055;-92
2021/05/17 02:30:52;;;;;;;16.05;6.75;;;11.10;99.90;;;;;;4924491;29;20053;-91
2021/05/17 02:33:22;;;;;;;16.10;6.78;;;11.20;99.90;;;;;;4915115;29;20044;-90
2021/05/17 02:36:22;;;;;;;;;;;11.10;99.90;;;;;;4893565;29;20041;-90
2021/05/17 02:38:55;;;;;;;11.25;6.15;;;11.10;99.90;;;;;;4929890;29;19930;-91
2021/05/17 02:41:28;;;;;;;11.75;5.75;;;11.10;99.90;;;;;;4936131;29;20259;-90
2021/05/17 02:44:03;;;;;;;11.88;5.13;;;12.30;99.90;;;;;;4905409;29;20059;-91
2021/05/17 02:46:33;;;;;;;12.63;4.63;;;10.50;99.90;;;;;;4912165;29;20048;-91
2021/05/17 02:49:03;;;;;;;7.63;4.63;;;11.10;99.90;;;;;;4885471;29;20059;-91
2021/05/17 02:51:32;;;;;;;12.38;4.57;;;11.10;99.90;;;;;;4890194;29;20056;-91
2021/05/17 02:54:26;;;;;;;7.97;3.83;;;11.20;99.90;;;;;;4928231;29;20063;-91
2021/05/17 02:57:19;;;;;;;7.95;3.67;;;11.00;99.90;;;;;;4898908;29;20040;-91
2021/05/17 03:00:08;;;;;;;7.88;3.67;;;11.00;99.90;;;;;;4905625;29;20051;-90
2021/05/17 03:03:07;;;;;;;10.35;3.90;;;11.00;99.90;;;;;;4925012;29;20054;-91
2021/05/17 03:05:59;;;;;;;8.48;4.18;;;11.00;99.90;;;;;;4917668;29;20060;-89
2021/05/17 03:08:36;;;;;;;12.02;4.03;;;11.00;99.90;;;;;;4909277;29;20052;-90
2021/05/17 03:11:15;;;;;;;12.70;4.20;;;11.00;99.90;;;;;;4910691;29;20053;-90
2021/05/17 03:13:53;;;;;;;9.05;4.00;;;11.00;99.90;;;;;;4916791;29;20061;-92
2021/05/17 03:16:25;;;;;;;7.90;4.43;;;11.00;99.90;;;;;;4877180;29;20056;-90
2021/05/17 03:18:58;;;;;;;8.38;4.05;;;11.00;99.90;;;;;;4905941;29;20053;-90
2021/05/17 03:21:28;;;;;;;11.45;4.22;;;11.00;99.90;;;;;;4923609;29;20472;-90
2021/05/17 03:23:58;;;;;;;8.65;4.28;;;11.00;99.90;;;;;;4908703;29;20064;-91
2021/05/17 03:26:27;;;;;;;11.45;5.78;;;11.00;99.90;;;;;;4894907;29;20056;-92
2021/05/17 03:28:57;;;;;;;8.55;4.65;;;11.00;99.90;;;;;;4905021;29;20057;-90
2021/05/17 03:31:27;;;;;;;10.57;4.97;;;11.00;99.90;;;;;;4884666;29;20044;-90
2021/05/17 03:33:58;;;;;;;16.08;5.60;;;10.90;99.90;;;;;;4892016;29;20052;-89
2021/05/17 03:36:26;;;;;;;9.95;5.25;;;10.90;99.90;;;;;;4887769;29;20056;-91
2021/05/17 03:38:56;;;;;;;11.70;5.25;;;11.00;99.90;;;;;;4913507;29;20051;-91
2021/05/17 03:41:25;;;;;;;12.48;6.95;;;11.00;99.90;;;;;;4931378;29;20047;-90
2021/05/17 03:43:53;;;;;;;13.23;6.22;;;11.00;99.90;;;;;;4908851;29;20052;-91
2021/05/17 03:46:24;;;;;;;20.55;7.97;;;11.10;99.90;;;;;;4916340;29;20056;-92
2021/05/17 03:48:55;;;;;;;12.77;6.53;;;11.00;99.90;;;;;;4907199;29;20052;-90
2021/05/17 03:51:25;;;;;;;18.85;5.68;;;11.00;99.90;;;;;;4922144;29;20052;-91
2021/05/17 03:53:57;;;;;;;13.52;6.57;;;11.00;99.90;;;;;;4926413;29;20043;-90
2021/05/17 03:56:25;;;;;;;12.85;7.35;;;11.00;99.90;;;;;;4883035;29;20056;-91
2021/05/17 03:58:55;;;;;;;11.65;5.78;;;11.00;99.90;;;;;;4911613;29;20063;-91
2021/05/17 04:01:26;;;;;;;17.83;8.63;;;11.00;99.90;;;;;;4900082;29;20045;-91
2021/05/17 04:03:58;;;;;;;19.27;9.25;;;11.00;99.90;;;;;;4894447;29;20056;-91
2021/05/17 04:06:39;;;;;;;16.90;8.95;;;11.00;99.90;;;;;;4926945;29;20051;-93
2021/05/17 04:14:44;;;;;;;15.50;8.40;;;11.30;99.90;;;;;;4896578;29;20055;-90
2021/05/17 04:17:13;;;;;;;18.77;9.90;;;11.00;99.90;;;;;;4915775;29;20047;-90
2021/05/17 04:19:49;;;;;;;16.53;8.70;;;11.00;99.90;;;;;;4912622;29;20052;-92
2021/05/17 04:22:18;;;;;;;17.38;8.75;;;11.00;99.90;;;;;;4928382;29;20063;-91
2021/05/17 04:24:49;;;;;;;16.55;8.18;;;10.90;99.90;;;;;;4910150;29;20067;-90
2021/05/17 04:27:20;;;;;;;17.30;8.45;;;11.00;99.90;;;;;;4897001;29;20044;-91
2021/05/17 04:29:51;;;;;;;15.18;8.90;;;11.00;99.90;;;;;;4903601;29;20056;-91
2021/05/17 04:32:21;;;;;;;19.73;9.07;;;12.00;99.90;;;;;;4900564;29;20056;-90
2021/05/17 04:34:50;;;;;;;20.15;9.80;;;11.00;99.90;;;;;;4910909;29;20066;-90
2021/05/17 04:37:18;;;;;;;28.92;11.40;;;11.00;99.90;;;;;;4910126;29;20051;-90
2021/05/17 04:39:50;;;;;;;20.95;8.20;;;11.00;99.90;;;;;;4904378;29;20059;-91
2021/05/17 04:42:20;;;;;;;22.38;9.70;;;11.00;99.90;;;;;;4922294;29;20067;-91
2021/05/17 04:44:50;;;;;;;18.05;9.75;;;11.00;99.90;;;;;;4913214;29;20048;-91
2021/05/17 04:47:18;;;;;;;22.27;10.07;;;11.10;99.90;;;;;;4894549;29;20053;-90
2021/05/17 04:49:50;;;;;;;22.17;10.43;;;11.00;99.90;;;;;;4925422;29;20061;-92
2021/05/17 04:52:20;;;;;;;19.70;9.80;;;11.00;99.90;;;;;;4901702;29;20060;-90
2021/05/17 04:54:48;;;;;;;22.58;10.98;;;11.00;99.90;;;;;;4909408;29;20056;-91
2021/05/17 04:57:21;;;;;;;27.63;11.65;;;11.10;99.90;;;;;;4912193;29;20059;-91
2021/05/17 05:00:05;;;;;;;29.65;9.57;;;11.10;99.90;;;;;;4907896;29;20056;-91
2021/05/17 05:02:37;;;;;;;26.80;10.70;;;11.00;99.90;;;;;;4897979;29;20067;-91
2021/05/17 05:05:08;;;;;;;21.13;11.30;;;11.10;99.90;;;;;;4901626;29;20060;-91
2021/05/17 05:07:36;;;;;;;21.42;10.02;;;11.00;99.90;;;;;;4901249;29;20083;-90
2021/05/17 05:10:04;;;;;;;19.65;10.35;;;11.10;99.90;;;;;;4897997;29;20064;-91
2021/05/17 05:12:37;;;;;;;22.77;9.35;;;11.00;99.90;;;;;;4923335;29;20048;-90
2021/05/17 05:15:07;;;;;;;19.50;9.05;;;11.00;99.90;;;;;;4900047;29;20056;-89
2021/05/17 05:17:37;;;;;;;;;;;11.00;99.90;;;;;;4892883;29;20051;-89
2021/05/17 05:20:05;;;;;;;17.38;9.18;;;11.10;99.90;;;;;;4889778;29;19927;-90
2021/05/17 05:22:35;;;;;;;19.55;9.38;;;11.10;99.90;;;;;;4899650;29;20227;-90
2021/05/17 05:25:05;;;;;;;17.50;9.43;;;11.10;99.90;;;;;;4900969;29;20071;-90
2021/05/17 05:27:40;;;;;;;25.52;9.52;;;11.20;99.90;;;;;;4903321;29;20051;-90
2021/05/17 05:32:50;;;;;;;19.33;9.20;;;11.30;99.90;;;;;;4888432;29;20055;-90
2021/05/17 05:35:19;;;;;;;17.75;9.75;;;11.30;99.90;;;;;;4894943;29;20070;-91
2021/05/17 05:37:47;;;;;;;23.10;11.75;;;11.30;99.90;;;;;;4898429;29;20052;-90
2021/05/17 05:40:16;;;;;;;19.60;9.75;;;11.30;99.90;;;;;;4896760;29;20059;-91
2021/05/17 05:42:47;;;;;;;21.10;10.35;;;11.30;99.90;;;;;;4900428;29;20484;-91
2021/05/17 05:45:24;;;;;;;18.30;9.65;;;11.40;99.90;;;;;;4900609;29;20063;-91
2021/05/17 05:47:55;;;;;;;21.58;10.35;;;11.40;99.90;;;;;;4885013;29;20071;-91
2021/05/17 05:50:23;;;;;;;21.35;9.38;;;11.40;99.90;;;;;;4888397;29;20071;-91
2021/05/17 05:52:53;;;;;;;18.37;9.13;;;11.60;99.90;;;;;;4913966;29;20060;-91
2021/05/17 05:55:22;;;;;;;22.15;10.98;;;11.50;99.90;;;;;;4923515;29;20063;-90
2021/05/17 05:57:50;;;;;;;20.42;10.95;;;11.50;99.90;;;;;;4912519;29;20051;-89
2021/05/17 06:00:18;;;;;;;18.02;10.68;;;11.50;99.90;;;;;;4904098;29;20404;-91
2021/05/17 06:02:46;;;;;;;22.00;11.65;;;11.40;99.90;;;;;;4908054;29;20063;-86
2021/05/17 06:05:15;;;;;;;23.33;11.27;;;11.40;99.90;;;;;;4922344;29;20052;-90
2021/05/17 06:07:43;;;;;;;22.38;11.38;;;11.50;99.90;;;;;;4907421;29;20055;-91
2021/05/17 06:10:11;;;;;;;21.35;11.68;;;11.40;99.90;;;;;;4878035;29;20040;-90
2021/05/17 06:12:40;;;;;;;20.88;11.20;;;11.40;99.90;;;;;;4891011;29;20056;-89
2021/05/17 06:15:09;;;;;;;19.95;11.55;;;11.50;99.90;;;;;;4899648;29;20053;-89
2021/05/17 06:17:37;;;;;;;19.08;10.60;;;11.50;99.90;;;;;;4894927;29;20040;-90
2021/05/17 06:20:08;;;;;;;18.08;10.18;;;11.50;99.90;;;;;;4909687;29;20063;-91
2021/05/17 06:22:38;;;;;;;18.02;9.95;;;10.80;99.90;;;;;;4906431;29;20044;-88
2021/05/17 06:25:12;;;;;;;22.50;11.27;;;11.50;99.90;;;;;;4921608;29;20044;-91
2021/05/17 06:27:43;;;;;;;23.13;10.88;;;11.50;99.90;;;;;;4901807;29;20484;-90
2021/05/17 06:30:16;;;;;;;20.95;11.15;;;10.70;99.90;;;;;;4906611;29;20064;-86
2021/05/17 06:32:46;;;;;;;17.73;10.13;;;11.60;99.90;;;;;;4901532;29;20051;-89
2021/05/17 06:35:22;;;;;;;16.98;9.25;;;11.50;99.90;;;;;;4896414;29;20048;-90
2021/05/17 06:37:50;;;;;;;17.25;10.93;;;11.60;99.90;;;;;;4914740;29;20054;-89
2021/05/17 06:40:19;;;;;;;15.85;9.63;;;11.60;99.90;;;;;;4909978;29;20052;-88
2021/05/17 06:42:48;;;;;;;19.90;10.68;;;11.70;99.90;;;;;;4891281;29;20055;-88
2021/05/17 06:45:16;;;;;;;18.88;9.45;;;11.70;99.90;;;;;;4887238;29;20631;-85
2021/05/17 06:47:45;;;;;;;18.55;9.48;;;11.80;99.90;;;;;;4908883;29;20067;-86
2021/05/17 06:50:13;;;;;;;21.63;11.20;;;11.90;99.90;;;;;;4902334;29;20055;-89
2021/05/17 06:52:44;;;;;;;20.25;9.02;;;11.90;99.90;;;;;;4912056;29;20052;-89
2021/05/17 06:55:18;;;;;;;19.27;10.43;;;12.00;99.90;;;;;;4910831;29;20068;-86
2021/05/17 07:00:38;;;;;;;21.73;11.85;;;12.00;99.90;;;;;;4902693;29;20377;-86
2021/05/17 07:03:07;;;;;;;22.08;10.70;;;12.00;99.90;;;;;;4912817;29;20055;-86
2021/05/17 07:05:40;;;;;;;22.33;12.50;;;12.00;99.90;;;;;;4909443;29;20055;-86
2021/05/17 07:13:24;;;;;;;16.45;8.50;;;12.10;99.90;;;;;;4912938;29;20060;-85
2021/05/17 07:15:52;;;;;;;19.88;8.07;;;12.20;99.90;;;;;;4917381;29;20053;-87
2021/05/17 07:18:20;;;;;;;15.90;8.60;;;12.20;99.90;;;;;;4917610;29;20059;-86
2021/05/17 07:26:08;;;;;;;75.90;18.02;;;12.40;99.90;;;;;;4897421;29;20055;-87
2021/05/17 07:28:36;;;;;;;21.40;8.77;;;12.50;99.90;;;;;;4913278;29;20059;-87
2021/05/17 07:31:06;;;;;;;27.20;10.45;;;12.50;99.90;;;;;;4897005;29;20060;-86
2021/05/17 07:33:34;;;;;;;42.88;13.05;;;12.60;99.90;;;;;;4903182;29;20071;-86
2021/05/17 07:36:03;;;;;;;29.27;10.38;;;12.60;99.90;;;;;;4900022;29;20048;-86
2021/05/17 07:38:32;;;;;;;19.95;9.25;;;12.60;99.90;;;;;;4910589;29;20063;-86
2021/05/17 07:41:02;;;;;;;18.55;9.10;;;12.60;99.90;;;;;;4901710;29;20052;-85
2021/05/17 07:43:30;;;;;;;18.98;9.68;;;12.60;99.90;;;;;;4907160;29;20056;-88
2021/05/17 07:45:58;;;;;;;22.23;10.45;;;12.60;99.90;;;;;;4908058;29;20492;-87
2021/05/17 07:48:26;;;;;;;24.00;9.95;;;12.60;99.90;;;;;;4907902;29;20059;-86
2021/05/17 07:50:54;;;;;;;20.58;10.00;;;12.60;99.90;;;;;;4909758;29;20071;-86
2021/05/17 07:53:22;;;;;;;20.17;9.30;;;12.50;99.90;;;;;;4911991;29;20055;-86
2021/05/17 07:55:52;;;;;;;23.73;10.18;;;12.60;99.90;;;;;;4894210;29;20048;-85
2021/05/17 07:58:20;;;;;;;28.25;10.40;;;12.50;99.90;;;;;;4883670;29;20051;-86
2021/05/17 08:00:47;;;;;;;21.05;11.23;;;12.50;99.90;;;;;;4896866;29;20040;-86
2021/05/17 08:03:15;;;;;;;19.33;10.27;;;12.50;99.90;;;;;;4912422;29;20523;-86
2021/05/17 08:05:58;;;;;;;20.73;10.40;;;12.50;99.90;;;;;;4918623;29;20059;-85
2021/05/17 08:08:26;;;;;;;17.52;9.00;;;12.50;99.90;;;;;;4922811;29;20052;-85
2021/05/17 08:10:55;;;;;;;24.45;12.05;;;12.50;99.90;;;;;;4921333;29;20052;-85
2021/05/17 08:13:22;;;;;;;19.00;9.50;;;12.60;99.90;;;;;;4224542;29;9999826;-87
2021/05/17 08:16:15;;;;;;;18.85;10.48;;;12.50;99.90;;;;;;4931233;29;20064;-84
2021/05/17 08:18:43;;;;;;;20.42;9.15;;;12.50;99.90;;;;;;4895739;29;20049;-85
2021/05/17 08:21:11;;;;;;;20.00;8.25;;;12.80;99.90;;;;;;4894472;29;20703;-85
2021/05/17 08:23:39;;;;;;;19.02;9.48;;;12.60;99.90;;;;;;4894930;29;20064;-86
2021/05/17 08:26:08;;;;;;;19.85;9.50;;;12.50;99.90;;;;;;4914007;29;20064;-85
2021/05/17 08:28:37;;;;;;;16.65;9.60;;;12.60;99.90;;;;;;4916878;29;20052;-85
2021/05/17 08:31:09;;;;;;;18.08;9.30;;;12.60;99.90;;;;;;4913658;29;20055;-85
2021/05/17 08:33:39;;;;;;;22.65;8.60;;;12.60;99.90;;;;;;4913479;29;20203;-85
2021/05/17 08:36:08;;;;;;;23.75;9.88;;;12.70;99.90;;;;;;4902852;29;20056;-86
2021/05/17 08:38:39;;;;;;;18.70;9.45;;;12.80;99.90;;;;;;4912470;29;20060;-85
2021/05/17 08:41:13;;;;;;;21.85;10.40;;;12.90;99.90;;;;;;4916061;29;20058;-90
2021/05/17 08:43:43;;;;;;;19.73;8.82;;;12.60;99.90;;;;;;4903570;29;20052;-87
2021/05/17 08:46:12;;;;;;;15.88;8.82;;;13.00;99.90;;;;;;4913604;29;20070;-87
2021/05/17 08:48:49;;;;;;;23.45;9.10;;;13.00;99.90;;;;;;4912518;29;20055;-85
2021/05/17 08:51:30;;;;;;;18.65;8.80;;;13.00;99.90;;;;;;4900240;29;20040;-85
2021/05/17 08:54:02;;;;;;;20.05;9.38;;;13.00;99.90;;;;;;4912029;29;20059;-86
2021/05/17 08:56:31;;;;;;;30.20;12.63;;;13.00;99.90;;;;;;4881393;29;20063;-85
2021/05/17 08:59:04;;;;;;;18.40;10.70;;;13.10;99.90;;;;;;4910973;29;20675;-84
2021/05/17 09:01:33;;;;;;;18.25;9.55;;;13.10;99.90;;;;;;4877254;29;20055;-85
2021/05/17 09:04:06;;;;;;;17.63;9.77;;;13.30;99.90;;;;;;4907513;29;20052;-85
2021/05/17 09:06:57;;;;;;;18.77;9.88;;;13.20;99.90;;;;;;4895893;29;20055;-86
2021/05/17 09:09:34;;;;;;;24.67;10.95;;;13.20;99.90;;;;;;4903585;29;20052;-86
2021/05/17 09:12:09;;;;;;;20.58;9.57;;;13.20;99.90;;;;;;4900348;29;20444;-85
2021/05/17 09:14:39;;;;;;;23.00;10.60;;;13.20;99.90;;;;;;4901881;29;20509;-85
2021/05/17 09:17:08;;;;;;;22.23;11.07;;;13.30;99.90;;;;;;4892272;29;20048;-86
2021/05/17 09:19:41;;;;;;;23.13;11.05;;;13.50;99.90;;;;;;4922039;29;20059;-85
2021/05/17 09:22:21;;;;;;;22.85;11.88;;;13.40;99.90;;;;;;4894933;29;20444;-85
2021/05/17 09:24:52;;;;;;;24.77;11.23;;;13.60;99.90;;;;;;4898182;29;20067;-85
2021/05/17 09:27:25;;;;;;;19.65;9.52;;;13.70;99.90;;;;;;4904230;29;20495;-84
2021/05/17 09:29:56;;;;;;;18.08;8.98;;;13.90;99.90;;;;;;4927675;29;20063;-85
2021/05/17 09:32:28;;;;;;;24.58;9.52;;;13.90;99.90;;;;;;4910025;29;20078;-85
2021/05/17 09:35:17;;;;;;;23.75;9.93;;;14.00;99.90;;;;;;4906076;29;20438;-86
2021/05/17 09:37:50;;;;;;;23.73;10.50;;;14.10;99.90;;;;;;4908226;29;20575;-86
2021/05/17 09:40:31;;;;;;;19.48;10.23;;;14.20;99.90;;;;;;4913323;29;20666;-87
2021/05/17 09:43:10;;;;;;;23.15;10.40;;;14.20;99.90;;;;;;4914485;29;20055;-85
2021/05/17 09:45:54;;;;;;;19.00;8.23;;;14.30;99.90;;;;;;4902985;29;20059;-87
2021/05/17 09:48:46;;;;;;;19.20;8.15;;;14.30;99.90;;;;;;4906740;29;20060;-88
2021/05/17 09:51:20;;;;;;;24.35;8.50;;;14.40;99.90;;;;;;4907333;29;20055;-88
2021/05/17 09:53:57;;;;;;;19.35;8.30;;;14.00;99.90;;;;;;4902361;29;20056;-86
2021/05/17 09:56:24;;;;;;;19.35;7.70;;;15.20;99.90;;;;;;4905854;29;20052;-88
2021/05/17 09:58:57;;;;;;;21.45;7.50;;;14.80;99.90;;;;;;4899796;29;20044;-86
2021/05/17 10:01:28;;;;;;;17.27;8.60;;;14.90;99.90;;;;;;4909593;29;20158;-85
2021/05/17 10:04:03;;;;;;;20.33;8.02;;;14.90;99.90;;;;;;4894549;29;20052;-88
2021/05/17 10:06:42;;;;;;;20.70;8.05;;;16.10;99.90;;;;;;4906839;29;20468;-86
2021/05/17 10:09:17;;;;;;;18.23;8.00;;;15.10;99.90;;;;;;4886057;29;20304;-84
2021/05/17 10:12:00;;;;;;;19.70;7.97;;;15.00;99.90;;;;;;4905865;29;20396;-85
2021/05/17 10:14:40;;;;;;;20.15;9.20;;;15.10;99.90;;;;;;4567388;29;10000139;-84
2021/05/17 10:17:33;;;;;;;18.75;7.95;;;15.30;99.90;;;;;;4889526;29;20056;-84
2021/05/17 10:20:08;;;;;;;17.02;8.43;;;15.40;99.90;;;;;;4919641;29;20056;-85
2021/05/17 10:22:35;;;;;;;18.63;9.00;;;15.40;99.90;;;;;;4886097;29;20060;-86
2021/05/17 10:25:06;;;;;;;21.00;8.15;;;15.50;99.90;;;;;;4894180;29;20063;-85
2021/05/17 10:27:40;;;;;;;18.93;8.50;;;15.60;99.90;;;;;;4909755;29;20056;-85
2021/05/17 10:30:12;;;;;;;20.60;8.23;;;15.80;99.90;;;;;;4918813;29;20431;-86
2021/05/17 10:32:46;;;;;;;18.70;8.27;;;15.80;99.90;;;;;;4894450;29;20066;-84
2021/05/17 10:35:19;;;;;;;14.75;7.00;;;15.90;99.90;;;;;;4907161;29;20559;-84
2021/05/17 10:37:48;;;;;;;16.00;7.93;;;15.90;99.90;;;;;;4907710;29;20056;-85
2021/05/17 10:40:33;;;;;;;19.42;9.73;;;16.00;99.90;;;;;;4914735;29;20063;-84
2021/05/17 10:43:37;;;;;;;21.70;9.50;;;16.10;99.90;;;;;;4899216;29;20063;-85
2021/05/17 10:49:34;;;;;;;15.25;6.97;;;16.50;99.90;;;;;;4924206;29;20053;-85
2021/05/17 10:52:09;;;;;;;20.58;7.53;;;16.70;99.90;;;;;;4909805;29;20063;-85
2021/05/17 10:55:06;;;;;;;16.10;6.28;;;16.70;99.90;;;;;;4908087;29;20374;-85
2021/05/17 10:57:40;;;;;;;15.88;6.93;;;16.60;99.90;;;;;;4910396;29;20063;-84
2021/05/17 11:00:26;;;;;;;14.30;6.70;;;16.50;99.90;;;;;;4913969;29;20068;-84
2021/05/17 11:03:13;;;;;;;14.25;6.65;;;16.50;99.90;;;;;;4920488;29;20055;-84
2021/05/17 11:05:43;;;;;;;17.65;6.72;;;16.60;99.90;;;;;;4918307;29;20056;-85
2021/05/17 11:08:14;;;;;;;13.52;6.65;;;16.70;99.90;;;;;;4903277;29;20053;-88
2021/05/17 11:10:53;;;;;;;14.13;6.88;;;16.80;99.90;;;;;;4894272;29;20064;-88
2021/05/17 11:13:23;;;;;;;14.35;6.50;;;16.90;99.90;;;;;;4897344;29;20056;-87
2021/05/17 11:16:01;;;;;;;17.27;8.15;;;17.10;99.90;;;;;;4893440;29;20067;-89
2021/05/17 11:18:30;;;;;;;17.85;7.43;;;17.20;99.90;;;;;;4905849;29;20052;-87
2021/05/17 11:21:12;;;;;;;15.50;6.88;;;17.30;99.90;;;;;;4910585;29;20082;-86
2021/05/17 11:23:46;;;;;;;11.20;5.38;;;17.30;99.90;;;;;;4894636;29;20055;-88
2021/05/17 11:26:22;;;;;;;11.27;5.18;;;17.20;99.90;;;;;;4896092;29;20059;-84
2021/05/17 11:28:53;;;;;;;18.88;6.00;;;17.00;99.90;;;;;;4905029;29;20044;-86
2021/05/17 11:31:38;;;;;;;18.75;6.43;;;17.00;99.90;;;;;;4907417;29;20428;-85
2021/05/17 11:34:13;;;;;;;13.95;6.35;;;17.00;99.90;;;;;;4913251;29;20059;-86
2021/05/17 11:36:49;;;;;;;11.32;4.85;;;17.10;99.90;;;;;;4916784;29;20056;-88
2021/05/17 11:39:27;;;;;;;16.05;5.63;;;17.20;99.90;;;;;;4921051;29;20500;-86
2021/05/17 11:42:00;;;;;;;13.60;5.95;;;17.30;99.90;;;;;;4903093;29;20473;-86
2021/05/17 11:44:30;;;;;;;12.35;5.78;;;17.20;99.90;;;;;;4905637;29;20633;-86
2021/05/17 11:47:09;;;;;;;14.25;5.57;;;17.20;99.90;;;;;;4906483;29;20052;-86
2021/05/17 11:49:43;;;;;;;13.82;5.78;;;17.10;99.90;;;;;;4903758;29;20048;-86
2021/05/17 11:52:29;;;;;;;16.23;6.25;;;17.00;99.90;;;;;;4911091;29;20067;-86
2021/05/17 11:55:04;;;;;;;20.25;7.10;;;17.10;99.90;;;;;;4913538;29;20536;-87
2021/05/17 11:57:42;;;;;;;16.42;6.10;;;17.00;99.90;;;;;;4912081;29;20048;-86
2021/05/17 12:00:13;;;;;;;15.48;5.55;;;17.10;99.90;;;;;;4915754;29;20052;-86
2021/05/17 12:02:47;;;;;;;13.98;4.95;;;17.20;99.90;;;;;;4918530;29;20056;-86
2021/05/17 12:05:16;;;;;;;12.90;5.60;;;17.40;99.90;;;;;;4914204;29;20064;-86
2021/05/17 12:07:46;;;;;;;11.80;5.65;;;17.50;99.90;;;;;;4910614;29;20068;-86
2021/05/17 12:10:16;;;;;;;17.38;6.22;;;17.50;99.90;;;;;;4937243;29;20055;-86
2021/05/17 12:12:45;;;;;;;12.35;5.38;;;17.50;99.90;;;;;;4924682;29;20063;-85
2021/05/17 12:15:18;;;;;;;16.83;6.00;;;17.50;99.90;;;;;;4920780;29;20056;-88
2021/05/17 12:17:47;;;;;;;15.98;6.13;;;17.40;99.90;;;;;;4915220;29;20305;-86
2021/05/17 12:20:17;;;;;;;15.57;5.43;;;17.30;99.90;;;;;;4893792;29;20057;-85
2021/05/17 12:22:50;;;;;;;13.10;6.03;;;17.10;99.90;;;;;;4916079;29;20055;-88
2021/05/17 12:25:27;;;;;;;11.15;4.53;;;17.00;99.90;;;;;;4916775;29;20744;-88
2021/05/17 12:28:01;;;;;;;12.55;6.07;;;16.80;99.90;;;;;;4889488;29;20060;-91
2021/05/17 12:30:34;;;;;;;13.20;5.90;;;16.50;99.90;;;;;;4894422;29;20059;-89
2021/05/17 12:33:04;;;;;;;15.18;6.35;;;16.40;99.90;;;;;;4903193;29;20048;-88
2021/05/17 12:35:41;;;;;;;13.55;6.88;;;16.30;99.90;;;;;;4924941;29;20051;-89
2021/05/17 12:38:15;;;;;;;15.60;7.00;;;15.90;99.90;;;;;;4911416;29;20045;-90
2021/05/17 12:40:47;;;;;;;13.10;6.22;;;16.30;99.90;;;;;;4907132;29;20165;-87
2021/05/17 12:43:20;;;;;;;12.65;5.63;;;16.40;99.90;;;;;;4918230;29;20059;-88
2021/05/17 12:46:02;;;;;;;15.60;5.65;;;16.50;99.90;;;;;;4923661;29;20067;-88
2021/05/17 12:48:47;;;;;;;12.70;4.43;;;16.60;99.90;;;;;;4915078;29;20071;-90
2021/05/17 12:51:16;;;;;;;12.05;5.07;;;16.60;99.90;;;;;;4900868;29;20056;-89
2021/05/17 12:53:47;;;;;;;12.35;5.25;;;16.50;99.90;;;;;;4898079;29;20061;-88
2021/05/17 12:56:31;;;;;;;10.48;4.32;;;16.40;99.90;;;;;;4918017;29;20056;-88
2021/05/17 12:59:14;;;;;;;9.57;5.43;;;16.40;99.90;;;;;;4916701;29;20059;-88
2021/05/17 13:01:42;;;;;;;12.45;7.07;;;16.40;99.90;;;;;;4916074;29;20052;-88
2021/05/17 13:04:10;;;;;;;16.98;6.63;;;16.30;99.90;;;;;;4915415;29;20330;-90
2021/05/17 13:06:40;;;;;;;13.13;4.30;;;16.30;99.90;;;;;;4903017;29;20524;-87
2021/05/17 13:09:19;;;;;;;15.07;4.72;;;16.10;99.90;;;;;;4884677;29;20053;-89
2021/05/17 13:11:56;;;;;;;5.72;3.70;;;16.10;99.90;;;;;;4911476;29;20393;-88
2021/05/17 13:14:24;;;;;;;8.18;3.72;;;16.00;99.90;;;;;;4924377;29;20056;-86
2021/05/17 13:16:54;;;;;;;5.63;3.03;;;16.20;99.90;;;;;;4914419;29;20052;-85
2021/05/17 13:30:34;;;;;;;13.18;4.15;;;18.10;99.90;;;;;;4907165;29;20063;-84
2021/05/17 13:33:03;;;;;;;9.98;3.67;;;18.30;99.90;;;;;;4906647;29;20052;-85
2021/05/17 13:35:31;;;;;;;6.72;3.45;;;18.40;99.90;;;;;;4906580;29;20071;-86
2021/05/17 13:38:00;;;;;;;7.70;3.60;;;18.40;99.90;;;;;;4909505;29;20069;-86
2021/05/17 13:40:28;;;;;;;10.13;3.15;;;18.50;99.90;;;;;;4909758;29;20067;-86
2021/05/17 13:42:56;;;;;;;5.07;2.20;;;18.40;99.90;;;;;;4909830;29;20504;-86
2021/05/17 13:45:24;;;;;;;6.38;2.40;;;18.40;99.90;;;;;;4914613;29;20067;-85
2021/05/17 13:47:51;;;;;;;6.28;2.15;;;18.30;99.90;;;;;;4918711;29;20420;-85